aviador You're here:

KEHR Decoded Metar

HENDERSON CITY in KY, USA
Report Time2017-07-22 09:56:00
UTC Time2017-07-22 10:41:37
Flight Rules vfr VFR
Wind210° at 04 kt
W.Decomp.*RWY 27: 2.1 kt HW 3.4 kt LCW
W.Rank210° ranks 2
Current wind is below 210° avg. (8.3)
Visibility9999 m
Phenomena:N/A
Clouds:N/A
Expected CloudBase > 400 ft AGL from Temp-Dew spread
CeilingNone
Temp24°C (ISA +10)
Dew Point23°C (94% RH)
QNH1013 hPa
Density Alt1,886 ft
Elevation384 ft
Report Wrong Elevation
Raw Report
METAR KEHR 220956Z AUTO 21004KT 8SM CLR 24/23 A2991 RMK AO2 SLP131
T02440233=

Extra information for KEHR:More info

Metar Taf Metar & Taf Last 4 Metars F.Rules Stats Wind Profile Meteogram Temp Stats Airport Information Weather charts Add Link Nearby VenuesMetar ALERT Operation Metar Decoded Social comments

AIRNAV info for KEHR